sensor_id;sensor_type;location;lat;lon;timestamp;P1;durP1;ratioP1;P2;durP2;ratioP2
61960;SDS011;47923;42.506;24.192;2023-03-08T00:00:13;47.88;;;24.40;;
61960;SDS011;47923;42.506;24.192;2023-03-08T00:02:41;45.75;;;26.63;;
61960;SDS011;47923;42.506;24.192;2023-03-08T00:05:07;58.33;;;37.05;;
61960;SDS011;47923;42.506;24.192;2023-03-08T00:07:33;49.15;;;32.25;;
61960;SDS011;47923;42.506;24.192;2023-03-08T00:09:59;52.60;;;30.80;;
61960;SDS011;47923;42.506;24.192;2023-03-08T00:12:24;41.78;;;26.83;;
61960;SDS011;47923;42.506;24.192;2023-03-08T00:14:50;41.47;;;27.27;;
61960;SDS011;47923;42.506;24.192;2023-03-08T00:17:16;44.30;;;28.92;;
61960;SDS011;47923;42.506;24.192;2023-03-08T00:19:42;53.22;;;34.92;;
61960;SDS011;47923;42.506;24.192;2023-03-08T00:22:08;39.47;;;25.38;;
61960;SDS011;47923;42.506;24.192;2023-03-08T00:24:35;44.10;;;25.48;;
61960;SDS011;47923;42.506;24.192;2023-03-08T00:27:00;51.80;;;30.92;;
61960;SDS011;47923;42.506;24.192;2023-03-08T00:29:26;41.38;;;26.00;;
61960;SDS011;47923;42.506;24.192;2023-03-08T00:31:51;42.15;;;24.45;;
61960;SDS011;47923;42.506;24.192;2023-03-08T00:34:17;35.08;;;22.75;;
61960;SDS011;47923;42.506;24.192;2023-03-08T00:36:42;38.13;;;24.85;;
61960;SDS011;47923;42.506;24.192;2023-03-08T00:39:08;62.15;;;41.30;;
61960;SDS011;47923;42.506;24.192;2023-03-08T00:41:35;64.30;;;43.67;;
61960;SDS011;47923;42.506;24.192;2023-03-08T00:44:00;60.75;;;39.75;;
61960;SDS011;47923;42.506;24.192;2023-03-08T00:46:26;59.38;;;38.78;;
61960;SDS011;47923;42.506;24.192;2023-03-08T00:48:51;50.05;;;32.85;;
61960;SDS011;47923;42.506;24.192;2023-03-08T00:51:18;46.30;;;30.00;;
61960;SDS011;47923;42.506;24.192;2023-03-08T00:53:44;48.63;;;29.52;;
61960;SDS011;47923;42.506;24.192;2023-03-08T00:56:10;49.95;;;28.40;;
61960;SDS011;47923;42.506;24.192;2023-03-08T00:58:37;45.95;;;29.67;;
61960;SDS011;47923;42.506;24.192;2023-03-08T01:01:04;44.13;;;26.27;;
61960;SDS011;47923;42.506;24.192;2023-03-08T01:03:30;39.90;;;26.20;;
61960;SDS011;47923;42.506;24.192;2023-03-08T01:05:55;41.58;;;23.30;;
61960;SDS011;47923;42.506;24.192;2023-03-08T01:08:23;34.15;;;21.65;;
61960;SDS011;47923;42.506;24.192;2023-03-08T01:10:50;30.95;;;18.20;;
61960;SDS011;47923;42.506;24.192;2023-03-08T01:13:18;29.88;;;19.00;;
61960;SDS011;47923;42.506;24.192;2023-03-08T01:15:45;34.13;;;19.65;;
61960;SDS011;47923;42.506;24.192;2023-03-08T01:18:11;30.40;;;20.05;;
61960;SDS011;47923;42.506;24.192;2023-03-08T01:20:37;28.25;;;19.00;;
61960;SDS011;47923;42.506;24.192;2023-03-08T01:23:02;38.40;;;26.38;;
61960;SDS011;47923;42.506;24.192;2023-03-08T01:25:28;42.83;;;27.70;;
61960;SDS011;47923;42.506;24.192;2023-03-08T01:27:54;45.22;;;29.05;;
61960;SDS011;47923;42.506;24.192;2023-03-08T01:30:19;43.60;;;28.77;;
61960;SDS011;47923;42.506;24.192;2023-03-08T01:32:45;53.45;;;34.08;;
61960;SDS011;47923;42.506;24.192;2023-03-08T01:35:10;47.95;;;29.33;;
61960;SDS011;47923;42.506;24.192;2023-03-08T01:37:36;40.03;;;24.85;;
61960;SDS011;47923;42.506;24.192;2023-03-08T01:40:01;37.00;;;22.38;;
61960;SDS011;47923;42.506;24.192;2023-03-08T01:42:28;28.90;;;18.83;;
61960;SDS011;47923;42.506;24.192;2023-03-08T01:47:25;29.40;;;19.52;;
61960;SDS011;47923;42.506;24.192;2023-03-08T01:49:53;34.42;;;20.95;;
61960;SDS011;47923;42.506;24.192;2023-03-08T01:52:21;31.27;;;19.15;;
61960;SDS011;47923;42.506;24.192;2023-03-08T01:54:50;27.50;;;18.55;;
61960;SDS011;47923;42.506;24.192;2023-03-08T01:57:40;29.02;;;18.02;;
61960;SDS011;47923;42.506;24.192;2023-03-08T02:05:32;31.45;;;18.73;;
61960;SDS011;47923;42.506;24.192;2023-03-08T02:08:00;33.00;;;19.45;;
61960;SDS011;47923;42.506;24.192;2023-03-08T02:10:26;45.08;;;31.10;;
61960;SDS011;47923;42.506;24.192;2023-03-08T02:12:51;40.45;;;27.30;;
61960;SDS011;47923;42.506;24.192;2023-03-08T02:15:17;45.17;;;29.35;;
61960;SDS011;47923;42.506;24.192;2023-03-08T02:17:44;39.40;;;27.60;;
61960;SDS011;47923;42.506;24.192;2023-03-08T02:22:45;40.65;;;25.92;;
61960;SDS011;47923;42.506;24.192;2023-03-08T02:27:39;38.13;;;25.02;;
61960;SDS011;47923;42.506;24.192;2023-03-08T02:30:05;38.35;;;24.83;;
61960;SDS011;47923;42.506;24.192;2023-03-08T02:32:31;38.42;;;24.17;;
61960;SDS011;47923;42.506;24.192;2023-03-08T02:34:57;41.63;;;27.35;;
61960;SDS011;47923;42.506;24.192;2023-03-08T02:37:22;36.22;;;22.25;;
61960;SDS011;47923;42.506;24.192;2023-03-08T02:39:48;34.85;;;21.85;;
61960;SDS011;47923;42.506;24.192;2023-03-08T02:42:13;32.45;;;21.50;;
61960;SDS011;47923;42.506;24.192;2023-03-08T02:44:39;36.15;;;23.65;;
61960;SDS011;47923;42.506;24.192;2023-03-08T02:47:04;33.08;;;21.58;;
61960;SDS011;47923;42.506;24.192;2023-03-08T02:49:30;33.25;;;21.98;;
61960;SDS011;47923;42.506;24.192;2023-03-08T02:51:55;33.45;;;21.20;;
61960;SDS011;47923;42.506;24.192;2023-03-08T02:54:21;27.63;;;19.85;;
61960;SDS011;47923;42.506;24.192;2023-03-08T02:56:46;29.25;;;18.95;;
61960;SDS011;47923;42.506;24.192;2023-03-08T02:59:12;29.35;;;19.77;;
61960;SDS011;47923;42.506;24.192;2023-03-08T03:01:37;30.73;;;20.10;;
61960;SDS011;47923;42.506;24.192;2023-03-08T03:04:03;29.58;;;20.50;;
61960;SDS011;47923;42.506;24.192;2023-03-08T03:06:28;31.80;;;21.75;;
61960;SDS011;47923;42.506;24.192;2023-03-08T03:08:53;27.77;;;20.00;;
61960;SDS011;47923;42.506;24.192;2023-03-08T03:11:20;30.33;;;19.50;;
61960;SDS011;47923;42.506;24.192;2023-03-08T03:13:52;50.55;;;32.88;;
61960;SDS011;47923;42.506;24.192;2023-03-08T03:16:19;45.97;;;30.52;;
61960;SDS011;47923;42.506;24.192;2023-03-08T03:18:44;48.30;;;33.10;;
61960;SDS011;47923;42.506;24.192;2023-03-08T03:21:11;42.65;;;29.10;;
61960;SDS011;47923;42.506;24.192;2023-03-08T03:23:38;38.90;;;26.38;;
61960;SDS011;47923;42.506;24.192;2023-03-08T03:26:08;36.85;;;23.42;;
61960;SDS011;47923;42.506;24.192;2023-03-08T03:28:44;29.35;;;19.77;;
61960;SDS011;47923;42.506;24.192;2023-03-08T03:31:14;27.27;;;18.38;;
61960;SDS011;47923;42.506;24.192;2023-03-08T03:33:41;22.98;;;15.73;;
61960;SDS011;47923;42.506;24.192;2023-03-08T03:36:07;25.27;;;16.77;;
61960;SDS011;47923;42.506;24.192;2023-03-08T03:38:36;26.73;;;17.88;;
61960;SDS011;47923;42.506;24.192;2023-03-08T03:41:06;28.15;;;18.50;;
61960;SDS011;47923;42.506;24.192;2023-03-08T03:43:34;27.05;;;17.67;;
61960;SDS011;47923;42.506;24.192;2023-03-08T03:46:02;32.20;;;18.98;;
61960;SDS011;47923;42.506;24.192;2023-03-08T03:48:29;28.38;;;19.00;;
61960;SDS011;47923;42.506;24.192;2023-03-08T03:50:55;26.88;;;16.08;;
61960;SDS011;47923;42.506;24.192;2023-03-08T03:53:29;19.33;;;13.02;;
61960;SDS011;47923;42.506;24.192;2023-03-08T03:56:00;20.52;;;12.80;;
61960;SDS011;47923;42.506;24.192;2023-03-08T03:58:29;19.10;;;12.10;;
61960;SDS011;47923;42.506;24.192;2023-03-08T04:00:54;19.15;;;11.48;;
61960;SDS011;47923;42.506;24.192;2023-03-08T04:03:20;22.60;;;13.90;;
61960;SDS011;47923;42.506;24.192;2023-03-08T04:05:45;28.48;;;17.67;;
61960;SDS011;47923;42.506;24.192;2023-03-08T04:08:11;22.85;;;14.75;;
61960;SDS011;47923;42.506;24.192;2023-03-08T04:10:36;23.95;;;15.23;;
61960;SDS011;47923;42.506;24.192;2023-03-08T04:13:02;20.95;;;13.38;;
61960;SDS011;47923;42.506;24.192;2023-03-08T04:15:27;16.77;;;10.50;;
61960;SDS011;47923;42.506;24.192;2023-03-08T04:17:53;21.90;;;10.95;;
61960;SDS011;47923;42.506;24.192;2023-03-08T04:20:18;20.40;;;10.13;;
61960;SDS011;47923;42.506;24.192;2023-03-08T04:22:44;26.58;;;15.05;;
61960;SDS011;47923;42.506;24.192;2023-03-08T04:25:09;31.05;;;17.88;;
61960;SDS011;47923;42.506;24.192;2023-03-08T04:27:35;36.50;;;20.38;;
61960;SDS011;47923;42.506;24.192;2023-03-08T04:30:00;26.98;;;15.00;;
61960;SDS011;47923;42.506;24.192;2023-03-08T04:32:26;35.33;;;19.27;;
61960;SDS011;47923;42.506;24.192;2023-03-08T04:34:51;35.83;;;20.65;;
61960;SDS011;47923;42.506;24.192;2023-03-08T04:37:17;30.20;;;15.93;;
61960;SDS011;47923;42.506;24.192;2023-03-08T04:39:42;25.05;;;14.88;;
61960;SDS011;47923;42.506;24.192;2023-03-08T04:42:08;26.40;;;15.30;;
61960;SDS011;47923;42.506;24.192;2023-03-08T04:44:33;30.95;;;19.17;;
61960;SDS011;47923;42.506;24.192;2023-03-08T04:46:59;34.60;;;20.38;;
61960;SDS011;47923;42.506;24.192;2023-03-08T04:49:25;36.60;;;24.15;;
61960;SDS011;47923;42.506;24.192;2023-03-08T04:51:50;39.58;;;25.95;;
61960;SDS011;47923;42.506;24.192;2023-03-08T04:54:16;33.15;;;22.60;;
61960;SDS011;47923;42.506;24.192;2023-03-08T04:56:41;21.55;;;14.40;;
61960;SDS011;47923;42.506;24.192;2023-03-08T04:59:06;21.45;;;13.63;;
61960;SDS011;47923;42.506;24.192;2023-03-08T05:01:32;31.02;;;17.52;;
61960;SDS011;47923;42.506;24.192;2023-03-08T05:03:57;38.70;;;21.83;;
61960;SDS011;47923;42.506;24.192;2023-03-08T05:06:23;36.60;;;22.10;;
61960;SDS011;47923;42.506;24.192;2023-03-08T05:08:51;38.97;;;21.27;;
61960;SDS011;47923;42.506;24.192;2023-03-08T05:11:27;47.30;;;26.13;;
61960;SDS011;47923;42.506;24.192;2023-03-08T05:13:53;40.63;;;22.27;;
61960;SDS011;47923;42.506;24.192;2023-03-08T05:16:19;35.80;;;21.77;;
61960;SDS011;47923;42.506;24.192;2023-03-08T05:18:45;26.33;;;15.93;;
61960;SDS011;47923;42.506;24.192;2023-03-08T05:21:15;29.33;;;16.40;;
61960;SDS011;47923;42.506;24.192;2023-03-08T05:23:42;36.70;;;19.60;;
61960;SDS011;47923;42.506;24.192;2023-03-08T05:26:09;26.52;;;15.75;;
61960;SDS011;47923;42.506;24.192;2023-03-08T05:28:36;27.67;;;16.67;;
61960;SDS011;47923;42.506;24.192;2023-03-08T05:31:02;33.78;;;23.15;;
61960;SDS011;47923;42.506;24.192;2023-03-08T05:33:33;40.83;;;23.50;;
61960;SDS011;47923;42.506;24.192;2023-03-08T05:35:59;56.30;;;34.40;;
61960;SDS011;47923;42.506;24.192;2023-03-08T05:38:25;67.70;;;38.00;;
61960;SDS011;47923;42.506;24.192;2023-03-08T05:40:50;70.35;;;38.70;;
61960;SDS011;47923;42.506;24.192;2023-03-08T05:43:16;66.10;;;43.20;;
61960;SDS011;47923;42.506;24.192;2023-03-08T05:45:43;90.53;;;47.03;;
61960;SDS011;47923;42.506;24.192;2023-03-08T05:48:17;99.78;;;56.22;;
61960;SDS011;47923;42.506;24.192;2023-03-08T05:50:43;124.30;;;69.20;;
61960;SDS011;47923;42.506;24.192;2023-03-08T05:53:08;128.40;;;77.82;;
61960;SDS011;47923;42.506;24.192;2023-03-08T05:55:33;133.25;;;80.28;;
61960;SDS011;47923;42.506;24.192;2023-03-08T05:57:59;116.70;;;74.57;;
61960;SDS011;47923;42.506;24.192;2023-03-08T06:00:24;93.35;;;63.78;;
61960;SDS011;47923;42.506;24.192;2023-03-08T06:02:50;48.15;;;34.60;;
61960;SDS011;47923;42.506;24.192;2023-03-08T06:05:15;76.72;;;49.10;;
61960;SDS011;47923;42.506;24.192;2023-03-08T06:07:41;40.65;;;30.15;;
61960;SDS011;47923;42.506;24.192;2023-03-08T06:10:08;37.00;;;26.23;;
61960;SDS011;47923;42.506;24.192;2023-03-08T06:12:33;41.78;;;32.08;;
61960;SDS011;47923;42.506;24.192;2023-03-08T06:14:59;47.05;;;35.28;;
61960;SDS011;47923;42.506;24.192;2023-03-08T06:17:24;56.38;;;41.22;;
61960;SDS011;47923;42.506;24.192;2023-03-08T06:19:50;63.30;;;52.25;;
61960;SDS011;47923;42.506;24.192;2023-03-08T06:22:16;57.50;;;47.88;;
61960;SDS011;47923;42.506;24.192;2023-03-08T06:24:41;91.55;;;71.43;;
61960;SDS011;47923;42.506;24.192;2023-03-08T06:27:07;85.45;;;65.70;;
61960;SDS011;47923;42.506;24.192;2023-03-08T06:29:32;90.65;;;68.70;;
61960;SDS011;47923;42.506;24.192;2023-03-08T06:31:58;51.92;;;45.17;;
61960;SDS011;47923;42.506;24.192;2023-03-08T06:34:23;58.85;;;47.58;;
61960;SDS011;47923;42.506;24.192;2023-03-08T06:36:48;51.60;;;45.05;;
61960;SDS011;47923;42.506;24.192;2023-03-08T06:39:16;53.80;;;45.53;;
61960;SDS011;47923;42.506;24.192;2023-03-08T06:41:41;49.55;;;42.97;;
61960;SDS011;47923;42.506;24.192;2023-03-08T06:44:07;55.13;;;45.85;;
61960;SDS011;47923;42.506;24.192;2023-03-08T06:46:32;54.15;;;45.45;;
61960;SDS011;47923;42.506;24.192;2023-03-08T06:48:58;59.33;;;47.17;;
61960;SDS011;47923;42.506;24.192;2023-03-08T06:51:24;67.82;;;50.03;;
61960;SDS011;47923;42.506;24.192;2023-03-08T06:53:50;62.30;;;50.55;;
61960;SDS011;47923;42.506;24.192;2023-03-08T06:56:17;75.25;;;60.10;;
61960;SDS011;47923;42.506;24.192;2023-03-08T06:58:43;82.05;;;69.32;;
61960;SDS011;47923;42.506;24.192;2023-03-08T07:01:08;86.18;;;64.13;;
61960;SDS011;47923;42.506;24.192;2023-03-08T07:03:34;90.80;;;72.00;;
61960;SDS011;47923;42.506;24.192;2023-03-08T07:06:01;90.18;;;75.22;;
61960;SDS011;47923;42.506;24.192;2023-03-08T07:08:28;94.60;;;76.80;;
61960;SDS011;47923;42.506;24.192;2023-03-08T07:10:55;94.18;;;80.07;;
61960;SDS011;47923;42.506;24.192;2023-03-08T07:13:20;106.40;;;87.43;;
61960;SDS011;47923;42.506;24.192;2023-03-08T07:15:47;123.05;;;102.57;;
61960;SDS011;47923;42.506;24.192;2023-03-08T07:18:13;118.43;;;103.18;;
61960;SDS011;47923;42.506;24.192;2023-03-08T07:20:39;124.88;;;107.07;;
61960;SDS011;47923;42.506;24.192;2023-03-08T07:23:04;119.90;;;99.32;;
61960;SDS011;47923;42.506;24.192;2023-03-08T07:25:30;146.45;;;118.20;;
61960;SDS011;47923;42.506;24.192;2023-03-08T07:27:57;123.32;;;108.45;;
61960;SDS011;47923;42.506;24.192;2023-03-08T07:30:24;95.82;;;84.82;;
61960;SDS011;47923;42.506;24.192;2023-03-08T07:32:51;65.57;;;58.50;;
61960;SDS011;47923;42.506;24.192;2023-03-08T07:35:17;32.65;;;26.77;;
61960;SDS011;47923;42.506;24.192;2023-03-08T07:37:44;26.90;;;23.80;;
61960;SDS011;47923;42.506;24.192;2023-03-08T07:40:12;25.08;;;19.77;;
61960;SDS011;47923;42.506;24.192;2023-03-08T07:42:38;22.38;;;16.42;;
61960;SDS011;47923;42.506;24.192;2023-03-08T07:45:04;24.10;;;13.32;;
61960;SDS011;47923;42.506;24.192;2023-03-08T07:47:30;7.35;;;3.28;;
61960;SDS011;47923;42.506;24.192;2023-03-08T07:49:55;6.00;;;2.17;;
61960;SDS011;47923;42.506;24.192;2023-03-08T07:52:25;4.88;;;1.63;;
61960;SDS011;47923;42.506;24.192;2023-03-08T07:54:51;4.70;;;2.13;;
61960;SDS011;47923;42.506;24.192;2023-03-08T07:57:17;4.45;;;2.17;;
61960;SDS011;47923;42.506;24.192;2023-03-08T07:59:42;6.82;;;2.83;;
61960;SDS011;47923;42.506;24.192;2023-03-08T08:02:10;5.00;;;2.10;;
61960;SDS011;47923;42.506;24.192;2023-03-08T08:04:37;7.05;;;1.95;;
61960;SDS011;47923;42.506;24.192;2023-03-08T08:07:02;3.83;;;1.98;;
61960;SDS011;47923;42.506;24.192;2023-03-08T08:09:28;4.18;;;2.20;;
61960;SDS011;47923;42.506;24.192;2023-03-08T08:11:54;6.20;;;1.92;;
61960;SDS011;47923;42.506;24.192;2023-03-08T08:14:19;5.68;;;2.08;;
61960;SDS011;47923;42.506;24.192;2023-03-08T08:16:44;3.92;;;1.60;;
61960;SDS011;47923;42.506;24.192;2023-03-08T08:19:10;6.20;;;4.03;;
61960;SDS011;47923;42.506;24.192;2023-03-08T08:21:36;6.57;;;3.42;;
61960;SDS011;47923;42.506;24.192;2023-03-08T08:24:02;6.55;;;2.10;;
61960;SDS011;47923;42.506;24.192;2023-03-08T08:26:27;4.53;;;2.33;;
61960;SDS011;47923;42.506;24.192;2023-03-08T08:28:53;8.25;;;3.80;;
61960;SDS011;47923;42.506;24.192;2023-03-08T08:31:20;5.60;;;2.42;;
61960;SDS011;47923;42.506;24.192;2023-03-08T08:33:48;5.00;;;2.20;;
61960;SDS011;47923;42.506;24.192;2023-03-08T08:36:14;6.50;;;2.72;;
61960;SDS011;47923;42.506;24.192;2023-03-08T08:38:44;4.30;;;1.70;;
61960;SDS011;47923;42.506;24.192;2023-03-08T08:41:10;7.20;;;2.70;;
61960;SDS011;47923;42.506;24.192;2023-03-08T08:43:39;4.47;;;1.98;;
61960;SDS011;47923;42.506;24.192;2023-03-08T08:46:05;8.57;;;3.25;;
61960;SDS011;47923;42.506;24.192;2023-03-08T08:48:30;3.75;;;1.70;;
61960;SDS011;47923;42.506;24.192;2023-03-08T08:50:59;4.10;;;2.30;;
61960;SDS011;47923;42.506;24.192;2023-03-08T08:53:25;3.40;;;1.88;;
61960;SDS011;47923;42.506;24.192;2023-03-08T08:55:51;3.65;;;1.77;;
61960;SDS011;47923;42.506;24.192;2023-03-08T08:58:16;4.18;;;1.98;;
61960;SDS011;47923;42.506;24.192;2023-03-08T09:00:42;3.50;;;1.30;;
61960;SDS011;47923;42.506;24.192;2023-03-08T09:03:09;3.53;;;1.40;;
61960;SDS011;47923;42.506;24.192;2023-03-08T09:05:39;4.00;;;1.50;;
61960;SDS011;47923;42.506;24.192;2023-03-08T09:08:06;7.40;;;2.55;;
61960;SDS011;47923;42.506;24.192;2023-03-08T09:10:33;6.78;;;4.30;;
61960;SDS011;47923;42.506;24.192;2023-03-08T09:12:59;4.50;;;1.85;;
61960;SDS011;47923;42.506;24.192;2023-03-08T09:15:25;7.10;;;2.60;;
61960;SDS011;47923;42.506;24.192;2023-03-08T09:17:51;3.08;;;1.45;;
61960;SDS011;47923;42.506;24.192;2023-03-08T09:20:17;8.23;;;2.25;;
61960;SDS011;47923;42.506;24.192;2023-03-08T09:22:43;5.32;;;2.10;;
61960;SDS011;47923;42.506;24.192;2023-03-08T09:25:09;5.40;;;2.35;;
61960;SDS011;47923;42.506;24.192;2023-03-08T09:27:35;4.78;;;2.25;;
61960;SDS011;47923;42.506;24.192;2023-03-08T09:30:02;6.28;;;2.38;;
61960;SDS011;47923;42.506;24.192;2023-03-08T09:32:31;6.07;;;2.40;;
61960;SDS011;47923;42.506;24.192;2023-03-08T09:34:58;5.38;;;1.83;;
61960;SDS011;47923;42.506;24.192;2023-03-08T09:37:23;5.05;;;2.10;;
61960;SDS011;47923;42.506;24.192;2023-03-08T09:39:52;4.20;;;1.38;;
61960;SDS011;47923;42.506;24.192;2023-03-08T09:42:21;6.95;;;2.00;;
61960;SDS011;47923;42.506;24.192;2023-03-08T09:47:34;9.02;;;8.23;;
61960;SDS011;47923;42.506;24.192;2023-03-08T09:50:13;6.88;;;4.72;;
61960;SDS011;47923;42.506;24.192;2023-03-08T09:52:53;6.43;;;1.73;;
61960;SDS011;47923;42.506;24.192;2023-03-08T09:55:27;8.05;;;2.40;;
61960;SDS011;47923;42.506;24.192;2023-03-08T09:57:57;5.65;;;1.60;;
61960;SDS011;47923;42.506;24.192;2023-03-08T10:00:34;8.30;;;2.83;;
61960;SDS011;47923;42.506;24.192;2023-03-08T10:05:46;4.82;;;1.52;;
61960;SDS011;47923;42.506;24.192;2023-03-08T10:16:08;2.72;;;1.33;;
61960;SDS011;47923;42.506;24.192;2023-03-08T10:21:28;2.80;;;1.10;;
61960;SDS011;47923;42.506;24.192;2023-03-08T10:24:15;4.13;;;1.38;;
61960;SDS011;47923;42.506;24.192;2023-03-08T10:26:50;4.75;;;0.90;;
61960;SDS011;47923;42.506;24.192;2023-03-08T10:29:18;4.43;;;1.80;;
61960;SDS011;47923;42.506;24.192;2023-03-08T10:31:43;1.55;;;0.90;;
61960;SDS011;47923;42.506;24.192;2023-03-08T10:34:15;3.10;;;1.35;;
61960;SDS011;47923;42.506;24.192;2023-03-08T10:36:52;2.92;;;1.60;;
61960;SDS011;47923;42.506;24.192;2023-03-08T10:39:22;2.83;;;1.70;;
61960;SDS011;47923;42.506;24.192;2023-03-08T10:41:49;5.20;;;1.70;;
61960;SDS011;47923;42.506;24.192;2023-03-08T10:44:33;2.92;;;1.27;;
61960;SDS011;47923;42.506;24.192;2023-03-08T10:47:25;8.98;;;1.98;;
61960;SDS011;47923;42.506;24.192;2023-03-08T10:50:13;4.03;;;1.92;;
61960;SDS011;47923;42.506;24.192;2023-03-08T10:52:44;2.90;;;1.52;;
61960;SDS011;47923;42.506;24.192;2023-03-08T10:55:12;4.72;;;1.70;;
61960;SDS011;47923;42.506;24.192;2023-03-08T10:57:38;2.80;;;1.25;;
61960;SDS011;47923;42.506;24.192;2023-03-08T11:02:45;2.13;;;1.08;;
61960;SDS011;47923;42.506;24.192;2023-03-08T11:05:19;2.03;;;1.20;;
61960;SDS011;47923;42.506;24.192;2023-03-08T11:07:59;2.78;;;1.20;;
61960;SDS011;47923;42.506;24.192;2023-03-08T11:10:25;8.40;;;4.88;;
61960;SDS011;47923;42.506;24.192;2023-03-08T11:13:10;6.47;;;3.33;;
61960;SDS011;47923;42.506;24.192;2023-03-08T11:15:55;2.30;;;1.10;;
61960;SDS011;47923;42.506;24.192;2023-03-08T11:24:15;2.58;;;1.30;;
61960;SDS011;47923;42.506;24.192;2023-03-08T11:38:24;2.97;;;1.10;;
61960;SDS011;47923;42.506;24.192;2023-03-08T11:41:26;5.03;;;1.10;;
61960;SDS011;47923;42.506;24.192;2023-03-08T11:49:45;3.60;;;1.50;;
61960;SDS011;47923;42.506;24.192;2023-03-08T11:57:59;6.88;;;2.70;;
61960;SDS011;47923;42.506;24.192;2023-03-08T12:00:48;3.35;;;1.25;;
61960;SDS011;47923;42.506;24.192;2023-03-08T12:03:17;1.75;;;0.85;;
61960;SDS011;47923;42.506;24.192;2023-03-08T12:05:49;3.15;;;0.90;;
61960;SDS011;47923;42.506;24.192;2023-03-08T12:16:07;4.03;;;1.00;;
61960;SDS011;47923;42.506;24.192;2023-03-08T12:21:37;3.50;;;1.70;;
61960;SDS011;47923;42.506;24.192;2023-03-08T12:24:17;5.00;;;1.58;;
61960;SDS011;47923;42.506;24.192;2023-03-08T12:27:06;2.95;;;1.42;;
61960;SDS011;47923;42.506;24.192;2023-03-08T12:29:53;4.93;;;1.63;;
61960;SDS011;47923;42.506;24.192;2023-03-08T12:32:28;2.40;;;1.02;;
61960;SDS011;47923;42.506;24.192;2023-03-08T12:35:02;2.17;;;1.25;;
61960;SDS011;47923;42.506;24.192;2023-03-08T12:37:31;4.20;;;2.13;;
61960;SDS011;47923;42.506;24.192;2023-03-08T12:40:04;4.50;;;2.20;;
61960;SDS011;47923;42.506;24.192;2023-03-08T12:42:50;5.35;;;1.70;;
61960;SDS011;47923;42.506;24.192;2023-03-08T12:45:28;4.65;;;2.25;;
61960;SDS011;47923;42.506;24.192;2023-03-08T12:48:07;4.65;;;2.40;;
61960;SDS011;47923;42.506;24.192;2023-03-08T12:50:41;3.53;;;1.52;;
61960;SDS011;47923;42.506;24.192;2023-03-08T12:58:53;2.97;;;0.80;;
61960;SDS011;47923;42.506;24.192;2023-03-08T13:01:57;4.63;;;1.30;;
61960;SDS011;47923;42.506;24.192;2023-03-08T13:04:38;1.88;;;1.00;;
61960;SDS011;47923;42.506;24.192;2023-03-08T13:14:45;6.07;;;1.75;;
61960;SDS011;47923;42.506;24.192;2023-03-08T13:20:21;12.50;;;7.60;;
61960;SDS011;47923;42.506;24.192;2023-03-08T13:22:58;5.68;;;2.08;;
61960;SDS011;47923;42.506;24.192;2023-03-08T13:28:14;3.88;;;2.15;;
61960;SDS011;47923;42.506;24.192;2023-03-08T13:30:43;2.35;;;0.93;;
61960;SDS011;47923;42.506;24.192;2023-03-08T13:33:19;4.78;;;2.30;;
61960;SDS011;47923;42.506;24.192;2023-03-08T13:35:57;6.20;;;3.38;;
61960;SDS011;47923;42.506;24.192;2023-03-08T13:38:30;4.07;;;1.80;;
61960;SDS011;47923;42.506;24.192;2023-03-08T13:40:57;4.80;;;2.15;;
61960;SDS011;47923;42.506;24.192;2023-03-08T13:43:24;3.70;;;1.80;;
61960;SDS011;47923;42.506;24.192;2023-03-08T13:45:52;3.92;;;1.65;;
61960;SDS011;47923;42.506;24.192;2023-03-08T13:48:20;4.80;;;2.70;;
61960;SDS011;47923;42.506;24.192;2023-03-08T13:50:48;4.20;;;2.00;;
61960;SDS011;47923;42.506;24.192;2023-03-08T13:53:19;5.70;;;2.58;;
61960;SDS011;47923;42.506;24.192;2023-03-08T13:55:48;3.22;;;1.48;;
61960;SDS011;47923;42.506;24.192;2023-03-08T13:58:27;3.90;;;1.38;;
61960;SDS011;47923;42.506;24.192;2023-03-08T14:01:15;2.13;;;1.20;;
61960;SDS011;47923;42.506;24.192;2023-03-08T14:03:49;3.65;;;1.30;;
61960;SDS011;47923;42.506;24.192;2023-03-08T14:06:26;2.38;;;1.00;;
61960;SDS011;47923;42.506;24.192;2023-03-08T14:08:54;8.75;;;2.40;;
61960;SDS011;47923;42.506;24.192;2023-03-08T14:11:26;6.93;;;2.22;;
61960;SDS011;47923;42.506;24.192;2023-03-08T14:13:53;3.17;;;1.50;;
61960;SDS011;47923;42.506;24.192;2023-03-08T14:21:45;4.05;;;1.58;;
61960;SDS011;47923;42.506;24.192;2023-03-08T14:24:32;4.07;;;1.70;;
61960;SDS011;47923;42.506;24.192;2023-03-08T14:27:00;3.90;;;2.00;;
61960;SDS011;47923;42.506;24.192;2023-03-08T14:29:34;2.42;;;1.50;;
61960;SDS011;47923;42.506;24.192;2023-03-08T14:34:39;4.57;;;1.95;;
61960;SDS011;47923;42.506;24.192;2023-03-08T14:37:06;7.43;;;2.08;;
61960;SDS011;47923;42.506;24.192;2023-03-08T14:39:37;4.80;;;1.25;;
61960;SDS011;47923;42.506;24.192;2023-03-08T14:44:40;6.10;;;1.90;;
61960;SDS011;47923;42.506;24.192;2023-03-08T14:47:28;7.30;;;2.10;;
61960;SDS011;47923;42.506;24.192;2023-03-08T14:52:26;5.65;;;2.42;;
61960;SDS011;47923;42.506;24.192;2023-03-08T14:54:53;4.13;;;1.50;;
61960;SDS011;47923;42.506;24.192;2023-03-08T14:57:24;5.22;;;2.10;;
61960;SDS011;47923;42.506;24.192;2023-03-08T14:59:51;5.78;;;2.70;;
61960;SDS011;47923;42.506;24.192;2023-03-08T15:02:17;7.72;;;2.42;;
61960;SDS011;47923;42.506;24.192;2023-03-08T15:04:43;5.43;;;2.22;;
61960;SDS011;47923;42.506;24.192;2023-03-08T15:07:13;11.70;;;2.92;;
61960;SDS011;47923;42.506;24.192;2023-03-08T15:09:43;6.43;;;2.78;;
61960;SDS011;47923;42.506;24.192;2023-03-08T15:12:08;8.68;;;2.67;;
61960;SDS011;47923;42.506;24.192;2023-03-08T15:14:36;6.55;;;2.42;;
61960;SDS011;47923;42.506;24.192;2023-03-08T15:17:02;8.68;;;2.15;;
61960;SDS011;47923;42.506;24.192;2023-03-08T15:19:27;15.20;;;4.60;;
61960;SDS011;47923;42.506;24.192;2023-03-08T15:21:52;11.32;;;3.55;;
61960;SDS011;47923;42.506;24.192;2023-03-08T15:24:18;17.13;;;5.70;;
61960;SDS011;47923;42.506;24.192;2023-03-08T15:26:44;17.25;;;9.48;;
61960;SDS011;47923;42.506;24.192;2023-03-08T15:29:15;16.92;;;9.70;;
61960;SDS011;47923;42.506;24.192;2023-03-08T15:31:48;23.63;;;11.43;;
61960;SDS011;47923;42.506;24.192;2023-03-08T15:34:13;21.08;;;10.43;;
61960;SDS011;47923;42.506;24.192;2023-03-08T15:36:39;18.70;;;11.10;;
61960;SDS011;47923;42.506;24.192;2023-03-08T15:39:04;17.50;;;9.68;;
61960;SDS011;47923;42.506;24.192;2023-03-08T15:41:30;15.38;;;6.43;;
61960;SDS011;47923;42.506;24.192;2023-03-08T15:43:55;13.20;;;6.47;;
61960;SDS011;47923;42.506;24.192;2023-03-08T15:46:20;13.95;;;7.25;;
61960;SDS011;47923;42.506;24.192;2023-03-08T15:48:46;19.10;;;9.88;;
61960;SDS011;47923;42.506;24.192;2023-03-08T15:51:18;18.25;;;9.40;;
61960;SDS011;47923;42.506;24.192;2023-03-08T15:53:45;15.88;;;7.97;;
61960;SDS011;47923;42.506;24.192;2023-03-08T15:56:11;13.23;;;7.93;;
61960;SDS011;47923;42.506;24.192;2023-03-08T15:58:37;19.92;;;10.80;;
61960;SDS011;47923;42.506;24.192;2023-03-08T16:01:03;17.52;;;9.15;;
61960;SDS011;47923;42.506;24.192;2023-03-08T16:03:29;17.52;;;10.65;;
61960;SDS011;47923;42.506;24.192;2023-03-08T16:05:54;19.58;;;11.20;;
61960;SDS011;47923;42.506;24.192;2023-03-08T16:08:20;25.27;;;15.63;;